Flight Track Log - Related Links

Times and Time Zones

All times are in EDT time to prevent confusion due to time zone crossing. See the N5114Z flight status page for this flight to view local times or setup timezone preferences in your user account.

Time Position Orientation Groundspeed Altitude Reporting Facility
EDT Latitude Longitude Course Direction KTS MPH feet Rate Location/Type
Tue 10:23:10 AM 42.2239 -83.5497 226° Southwest 74 85 1,000  Level Cleveland Center
Tue 10:24:35 AM 42.2044 -83.5769 226° Southwest 72 83 2,000 616 Climbing Cleveland Center
Tue 10:25:36 AM 42.2144 -83.5914 313° West 82 94 2,500 492 Climbing Cleveland Center
Tue 10:26:37 AM 42.2381 -83.5703 34° Northeast 98 113 3,000 246 Climbing Cleveland Center
Tue 10:27:38 AM 42.2614 -83.5544 27° Northeast 104 120 3,000  Level Cleveland Center
Tue 10:28:39 AM 42.2886 -83.5417 19° North 97 112 3,000  Level Cleveland Center
Tue 10:29:41 AM 42.3139 -83.5344 12° North 96 110 3,000  Level Cleveland Center
Tue 10:30:42 AM 42.3414 -83.5217 19° North 96 110 3,000  Level Cleveland Center
Tue 10:31:43 AM 42.3606 -83.5000 40° Northeast 94 108 3,000  Level Cleveland Center
Tue 10:32:44 AM 42.3803 -83.4700 48° Northeast 96 110 3,000  Level Cleveland Center
Tue 10:33:45 AM 42.3933 -83.4425 57° Northeast 102 117 3,000  Level Cleveland Center
Tue 10:34:47 AM 42.3744 -83.4472 190° South 94 108 3,000  Level Cleveland Center
Tue 10:35:48 AM 42.3633 -83.4806 246° West 99 114 3,000  Level Cleveland Center
Tue 10:36:49 AM 42.3481 -83.5081 233° Southwest 96 110 3,000 -98 Level Cleveland Center
Tue 10:37:51 AM 42.3303 -83.5436 236° Southwest 98 113 2,800 -244 Descending Cleveland Center
Tue 10:38:52 AM 42.3150 -83.5739 236° Southwest 104 120 2,500 -148 Descending Cleveland Center
Tue 10:39:53 AM 42.2975 -83.6039 232° Southwest 95 109 2,500  Level Cleveland Center
Tue 10:40:54 AM 42.2822 -83.6283 230° Southwest 95 109 2,500 -49 Level Cleveland Center
Tue 10:41:55 AM 42.2689 -83.6642 243° Southwest 94 108 2,400 -341 Descending Cleveland Center
Tue 10:42:57 AM 42.2514 -83.6914 229° Southwest 100 115 1,800 -537 Descending Cleveland Center
Tue 10:43:58 AM 42.2383 -83.7161 235° Southwest 78 90 1,300 -246 Descending Cleveland Center
Tue 10:44:59 AM 42.2250 -83.7433 237° Southwest 83 96 1,300 344 Level Cleveland Center
Tue 10:46:00 AM 42.2097 -83.7678 230° Southwest 77 89 2,000 634 Climbing Cleveland Center
Tue 10:47:02 AM 42.1944 -83.7867 222° Southwest 75 86 2,600 537 Climbing Cleveland Center
Tue 10:48:03 AM 42.1814 -83.8114 235° Southwest 87 100 3,100 197 Climbing Cleveland Center
Tue 10:49:04 AM 42.2061 -83.8181 349° North 104 120 3,000 -49 Descending Cleveland Center
Tue 10:50:05 AM 42.2300 -83.7886 42° Northeast 114 131 3,000  Level Cleveland Center
Tue 10:51:07 AM 42.2578 -83.7619 35° Northeast 110 127 3,000  Level Cleveland Center
Tue 10:52:08 AM 42.2814 -83.7378 37° Northeast 110 127 3,000  Level Cleveland Center
Tue 10:53:09 AM 42.3050 -83.7136 37° Northeast 112 129 3,000  Level Cleveland Center
Tue 10:54:10 AM 42.3308 -83.6869 37° Northeast 111 128 3,000  Level Cleveland Center
Tue 10:55:12 AM 42.3506 -83.6486 55° Northeast 112 129 3,000  Level Cleveland Center
Tue 10:56:13 AM 42.3472 -83.6119 97° East 114 131 3,000  Level Cleveland Center
Tue 10:57:14 AM 42.3228 -83.5911 148° Southeast 111 128 3,000 -49 Level Cleveland Center
Tue 10:58:15 AM 42.2953 -83.6067 203° Southwest 104 120 2,900 -244 Descending Cleveland Center
Tue 10:59:17 AM 42.2800 -83.6394 238° Southwest 109 125 2,500 -390 Descending Cleveland Center
Tue 11:00:18 AM 42.2644 -83.6697 235° Southwest 90 104 2,100 -393 Descending Cleveland Center
Tue 11:01:19 AM 42.2514 -83.6942 234° Southwest 86 99 1,700 -439 Descending Cleveland Center
Tue 11:02:21 AM 42.2339 -83.7214 229° Southwest 88 101 1,200 -98 Descending Cleveland Center
Tue 11:03:22 AM 42.2228 -83.7489 241° Southwest 84 97 1,500 496 Climbing Cleveland Center
Tue 11:04:22 AM 42.2097 -83.7706 231° Southwest 74 85 2,200 545 Climbing Cleveland Center
Tue 11:05:23 AM 42.1964 -83.7925 231° Southwest 72 83 2,600 443 Climbing Cleveland Center
Tue 11:06:24 AM 42.1936 -83.8231 263° West 81 93 3,100 197 Climbing Cleveland Center
Tue 11:07:25 AM 42.1906 -83.8594 264° West 97 112 3,000 -49 Descending Cleveland Center
Tue 11:08:26 AM 42.2069 -83.8658 344° North 115 132 3,000  Level Cleveland Center
Tue 11:09:27 AM 42.2289 -83.8278 52° Northeast 122 140 3,000  Level Cleveland Center
Tue 11:10:28 AM 42.2506 -83.7953 48° Northeast 123 142 3,000  Level Cleveland Center
Tue 11:11:29 AM 42.2767 -83.7628 43° Northeast 118 136 3,000  Level Cleveland Center
Tue 11:12:30 AM 42.3006 -83.7275 48° Northeast 123 142 3,000  Level Cleveland Center
Tue 11:13:31 AM 42.3219 -83.7006 43° Northeast 116 133 3,000  Level Cleveland Center
Tue 11:14:32 AM 42.3478 -83.6736 38° Northeast 114 131 3,000  Level Cleveland Center
Tue 11:15:33 AM 42.3714 -83.6467 40° Northeast 116 133 3,000  Level Cleveland Center
Tue 11:16:34 AM 42.3953 -83.6142 45° Northeast 118 136 3,000 49 Level Cleveland Center
Tue 11:17:35 AM 42.4208 -83.5872 38° Northeast 114 131 3,100  Climbing Cleveland Center
Tue 11:18:36 AM 42.4522 -83.5858 North 108 124 3,000 -98 Descending Cleveland Center
Tue 11:19:37 AM 42.4456 -83.6053 245° Southwest 100 115 2,900 49 Descending Cleveland Center
Tue 11:20:38 AM 42.4164 -83.6011 174° South 109 125 3,100 -149 Climbing Cleveland Center
Tue 11:21:38 AM 42.3950 -83.6225 216° Southwest 123 142 2,600 -248 Descending Cleveland Center
Tue 11:22:39 AM 42.4097 -83.6206 North 104 120 2,600 -49 Level Cleveland Center
Tue 11:23:40 AM 42.4231 -83.5903 59° Northeast 106 122 2,500  Descending Cleveland Center
Tue 11:24:41 AM 42.4156 -83.5589 108° East 107 123 2,600 49 Climbing Cleveland Center
Tue 11:25:42 AM 42.3881 -83.5689 195° South 93 107 2,600  Level Cleveland Center
Tue 11:26:43 AM 42.3608 -83.5703 182° South 106 122 2,600  Level Cleveland Center
Tue 11:27:44 AM 42.3319 -83.5633 170° South 103 119 2,600 -98 Level Cleveland Center
Tue 11:28:45 AM 42.3053 -83.5453 153° Southeast 100 115 2,400 -397 Descending Cleveland Center
Tue 11:29:45 AM 42.2783 -83.5383 169° South 88 101 1,800 -496 Descending Cleveland Center
Tue 11:30:46 AM 42.2536 -83.5317 169° South 86 99 1,400 -148 Descending Cleveland Center
Tue 11:31:47 AM 42.2328 -83.5250 167° South 95 109 1,500 98 Climbing Cleveland Center

Login

Don't have an account? Register now (free) for customized features, flight alerts, and more!